createdAt,value
2022-10-30T00:01:14.687Z,11.70
2022-10-30T00:03:42.348Z,11.70
2022-10-30T00:06:10.264Z,11.72
2022-10-30T00:08:37.939Z,11.72
2022-10-30T00:11:23.821Z,11.73
2022-10-30T00:13:51.443Z,11.67
2022-10-30T00:16:19.324Z,11.63
2022-10-30T00:18:46.973Z,11.59
2022-10-30T00:21:16.659Z,11.57
2022-10-30T00:23:52.264Z,11.56
2022-10-30T00:26:21.775Z,11.55
2022-10-30T00:28:54.332Z,11.54
2022-10-30T00:31:23.301Z,11.53
2022-10-30T00:33:55.434Z,11.56
2022-10-30T00:36:23.537Z,11.55
2022-10-30T00:38:51.359Z,11.56
2022-10-30T00:41:24.815Z,11.56
2022-10-30T00:43:53.592Z,11.58
2022-10-30T00:46:25.958Z,11.57
2022-10-30T00:49:04.261Z,11.54
2022-10-30T00:51:34.435Z,11.50
2022-10-30T00:54:06.656Z,11.47
2022-10-30T00:56:34.761Z,11.44
2022-10-30T00:59:07.773Z,11.46
2022-10-30T01:01:39.800Z,11.45
2022-10-30T01:04:08.320Z,11.47
2022-10-30T01:06:41.105Z,11.53
2022-10-30T01:09:08.951Z,11.56
2022-10-30T01:11:36.640Z,11.56
2022-10-30T01:14:08.384Z,11.55
2022-10-30T01:17:17.504Z,11.52
2022-10-30T01:20:16.298Z,11.56
2022-10-30T01:23:13.165Z,11.52
2022-10-30T01:26:12.988Z,11.49
2022-10-30T01:28:59.400Z,11.50
2022-10-30T01:31:46.936Z,11.49
2022-10-30T01:34:56.342Z,11.44
2022-10-30T01:37:32.191Z,11.43
2022-10-30T01:40:10.646Z,11.41
2022-10-30T01:42:54.606Z,11.44
2022-10-30T01:45:49.241Z,11.45
2022-10-30T01:48:16.799Z,11.48
2022-10-30T01:51:03.075Z,11.47
2022-10-30T01:53:42.873Z,11.47
2022-10-30T01:56:22.985Z,11.45
2022-10-30T01:58:50.559Z,11.41
2022-10-30T02:01:19.650Z,11.40
2022-10-30T02:03:47.771Z,11.37
2022-10-30T02:06:15.453Z,11.35
2022-10-30T02:08:43.075Z,11.29
2022-10-30T02:11:11.640Z,11.25
2022-10-30T02:13:39.395Z,11.26
2022-10-30T02:16:07.557Z,11.25
2022-10-30T02:18:35.243Z,11.26
2022-10-30T02:21:03.360Z,11.26
2022-10-30T02:23:31.088Z,11.24
2022-10-30T02:25:58.750Z,11.25
2022-10-30T02:28:26.372Z,11.24
2022-10-30T02:30:54.032Z,11.24
2022-10-30T02:33:21.732Z,11.23
2022-10-30T02:35:49.340Z,11.19
2022-10-30T02:38:16.940Z,11.18
2022-10-30T02:40:44.536Z,11.22
2022-10-30T02:43:12.205Z,11.25
2022-10-30T02:45:39.795Z,11.26
2022-10-30T02:48:08.270Z,11.27
2022-10-30T02:50:36.005Z,11.29
2022-10-30T02:53:03.694Z,11.29
2022-10-30T02:55:31.317Z,11.28
2022-10-30T02:57:58.879Z,11.27
2022-10-30T03:00:26.467Z,11.21
2022-10-30T03:02:57.974Z,11.17
2022-10-30T03:05:26.469Z,11.05
2022-10-30T03:07:56.486Z,11.01
2022-10-30T03:10:24.407Z,11.03
2022-10-30T03:12:52.066Z,11.03
2022-10-30T03:15:19.754Z,11.01
2022-10-30T03:17:47.408Z,11.00
2022-10-30T03:20:15.008Z,11.00
2022-10-30T03:22:42.613Z,11.01
2022-10-30T03:25:10.593Z,11.01
2022-10-30T03:27:38.232Z,11.03
2022-10-30T03:30:06.199Z,11.06
2022-10-30T03:32:33.774Z,11.03
2022-10-30T03:35:01.434Z,10.97
2022-10-30T03:37:29.034Z,10.91
2022-10-30T03:39:56.642Z,10.86
2022-10-30T03:42:24.282Z,10.86
2022-10-30T03:44:51.893Z,10.83
2022-10-30T03:47:19.500Z,10.82
2022-10-30T03:49:47.070Z,10.78
2022-10-30T03:52:14.702Z,10.77
2022-10-30T03:54:42.309Z,10.77
2022-10-30T03:57:09.922Z,10.77
2022-10-30T03:59:37.581Z,10.81
2022-10-30T04:02:05.374Z,10.85
2022-10-30T04:04:33.117Z,10.85
2022-10-30T04:07:00.735Z,10.82
2022-10-30T04:09:28.370Z,10.82
2022-10-30T04:11:55.977Z,10.81
2022-10-30T04:14:23.599Z,10.81
2022-10-30T04:16:51.190Z,10.81
2022-10-30T04:19:18.796Z,10.83
2022-10-30T04:21:48.839Z,10.86
2022-10-30T04:24:18.270Z,10.84
2022-10-30T04:26:46.161Z,10.82
2022-10-30T04:29:13.788Z,10.84
2022-10-30T04:31:41.399Z,10.84
2022-10-30T04:34:09.112Z,10.85
2022-10-30T04:36:36.720Z,10.86
2022-10-30T04:39:04.570Z,10.92
2022-10-30T04:41:32.427Z,10.95
2022-10-30T04:44:00.071Z,11.00
2022-10-30T04:46:27.685Z,11.05
2022-10-30T04:48:55.558Z,11.08
2022-10-30T04:51:23.235Z,11.14
2022-10-30T04:53:50.857Z,11.15
2022-10-30T04:56:18.512Z,11.18
2022-10-30T04:58:46.128Z,11.17
2022-10-30T05:01:13.990Z,11.20
2022-10-30T05:03:41.666Z,11.22
2022-10-30T05:06:27.288Z,11.23
2022-10-30T05:08:55.915Z,11.25
2022-10-30T05:11:23.672Z,11.24
2022-10-30T05:13:51.306Z,11.25
2022-10-30T05:16:18.949Z,11.26
2022-10-30T05:18:46.595Z,11.27
2022-10-30T05:21:14.277Z,11.28
2022-10-30T05:23:41.944Z,11.26
2022-10-30T05:26:09.525Z,11.27
2022-10-30T05:28:37.173Z,11.27
2022-10-30T05:31:04.832Z,11.28
2022-10-30T05:33:32.480Z,11.28
2022-10-30T05:36:00.124Z,11.29
2022-10-30T05:38:27.711Z,11.27
2022-10-30T05:40:55.301Z,11.27
2022-10-30T05:43:22.948Z,11.23
2022-10-30T05:45:51.266Z,11.17
2022-10-30T05:48:18.951Z,11.15
2022-10-30T05:50:46.695Z,11.16
2022-10-30T05:53:14.403Z,11.15
2022-10-30T05:55:42.012Z,11.12
2022-10-30T05:58:11.274Z,11.11
2022-10-30T06:00:40.307Z,11.09
2022-10-30T06:03:11.501Z,11.06
2022-10-30T06:05:39.314Z,11.04
2022-10-30T06:08:08.390Z,11.03
2022-10-30T06:10:36.244Z,11.01
2022-10-30T06:13:07.665Z,10.99
2022-10-30T06:15:35.396Z,11.02
2022-10-30T06:18:03.211Z,11.05
2022-10-30T06:20:32.078Z,11.06
2022-10-30T06:23:02.312Z,11.07
2022-10-30T06:25:36.439Z,11.10
2022-10-30T06:28:08.577Z,11.10
2022-10-30T06:30:36.164Z,11.12
2022-10-30T06:33:06.109Z,11.14
2022-10-30T06:35:33.887Z,11.17
2022-10-30T06:38:01.638Z,11.17
2022-10-30T06:40:31.078Z,11.18
2022-10-30T06:42:59.578Z,11.18
2022-10-30T06:45:27.408Z,11.16
2022-10-30T06:47:55.369Z,11.13
2022-10-30T06:50:23.522Z,11.14
2022-10-30T06:52:51.387Z,11.15
2022-10-30T06:55:19.446Z,11.17
2022-10-30T06:57:47.156Z,11.16
2022-10-30T07:00:15.142Z,11.11
2022-10-30T07:02:42.806Z,11.12
2022-10-30T07:05:10.551Z,11.11
2022-10-30T07:07:38.207Z,11.13
2022-10-30T07:10:06.115Z,11.09
2022-10-30T07:12:33.759Z,11.11
2022-10-30T07:15:01.381Z,11.15
2022-10-30T07:17:29.051Z,11.17
2022-10-30T07:19:56.760Z,11.17
2022-10-30T07:22:24.423Z,11.19
2022-10-30T07:24:52.043Z,11.24
2022-10-30T07:27:19.702Z,11.25
2022-10-30T07:29:47.320Z,11.24
2022-10-30T07:32:14.984Z,11.24
2022-10-30T07:34:42.892Z,11.26
2022-10-30T07:37:10.516Z,11.24
2022-10-30T07:39:38.156Z,11.24
2022-10-30T07:42:05.897Z,11.28
2022-10-30T07:44:33.494Z,11.29
2022-10-30T07:47:01.109Z,11.27
2022-10-30T07:49:28.755Z,11.35
2022-10-30T07:51:56.354Z,11.41
2022-10-30T07:54:24.073Z,11.37
2022-10-30T07:56:51.661Z,11.38
2022-10-30T07:59:19.254Z,11.44
2022-10-30T08:01:47.081Z,11.50
2022-10-30T08:04:15.160Z,11.58
2022-10-30T08:06:42.767Z,11.61
2022-10-30T08:09:11.406Z,11.66
2022-10-30T08:11:39.060Z,11.71
2022-10-30T08:14:06.733Z,11.79
2022-10-30T08:16:34.387Z,11.84
2022-10-30T08:19:02.129Z,11.87
2022-10-30T08:21:29.695Z,11.81
2022-10-30T08:23:57.348Z,11.89
2022-10-30T08:26:24.928Z,11.93
2022-10-30T08:28:52.548Z,11.95
2022-10-30T08:31:20.201Z,12.00
2022-10-30T08:33:47.812Z,12.03
2022-10-30T08:36:15.417Z,12.07
2022-10-30T08:38:43.115Z,12.03
2022-10-30T08:41:10.801Z,11.95
2022-10-30T08:43:39.994Z,11.85
2022-10-30T08:46:07.649Z,11.81
2022-10-30T08:48:35.274Z,11.74
2022-10-30T08:51:03.057Z,11.77
2022-10-30T08:53:30.687Z,11.84
2022-10-30T08:55:58.269Z,11.90
2022-10-30T08:58:28.242Z,12.00
2022-10-30T09:01:01.016Z,12.09
2022-10-30T09:03:29.095Z,12.14
2022-10-30T09:05:59.994Z,12.17
2022-10-30T09:08:28.566Z,12.22
2022-10-30T09:10:59.591Z,12.30
2022-10-30T09:13:27.448Z,12.39
2022-10-30T09:15:55.057Z,12.46
2022-10-30T09:18:22.706Z,12.51
2022-10-30T09:20:50.695Z,12.55
2022-10-30T09:23:18.331Z,12.59
2022-10-30T09:25:45.951Z,12.61
2022-10-30T09:28:13.549Z,12.64
2022-10-30T09:30:41.174Z,12.73
2022-10-30T09:33:10.002Z,12.80
2022-10-30T09:35:38.191Z,12.81
2022-10-30T09:38:06.216Z,12.87
2022-10-30T09:40:46.026Z,12.91
2022-10-30T09:43:50.219Z,12.94
2022-10-30T09:46:36.026Z,13.03
2022-10-30T09:49:33.342Z,13.08
2022-10-30T09:52:15.321Z,13.12
2022-10-30T09:54:55.088Z,13.17
2022-10-30T09:57:37.489Z,13.28
2022-10-30T10:00:16.158Z,13.31
2022-10-30T10:03:04.069Z,13.41
2022-10-30T10:06:00.977Z,13.49
2022-10-30T10:09:02.289Z,13.52
2022-10-30T10:11:38.354Z,13.60
2022-10-30T10:14:16.023Z,13.67
2022-10-30T10:16:46.748Z,13.66
2022-10-30T10:19:34.575Z,13.69
2022-10-30T10:22:04.810Z,13.72
2022-10-30T10:24:36.321Z,13.69
2022-10-30T10:27:31.731Z,13.70
2022-10-30T10:29:59.285Z,13.69
2022-10-30T10:32:30.094Z,13.67
2022-10-30T10:35:08.475Z,13.69
2022-10-30T10:37:43.257Z,13.69
2022-10-30T10:40:13.861Z,13.61
2022-10-30T10:42:48.578Z,13.65
2022-10-30T10:45:26.179Z,13.72
2022-10-30T10:48:18.099Z,13.77
2022-10-30T10:50:53.072Z,13.82
2022-10-30T10:53:41.731Z,13.90
2022-10-30T10:56:11.285Z,13.92
2022-10-30T10:58:51.391Z,13.95
2022-10-30T11:01:25.886Z,13.95
2022-10-30T11:04:12.101Z,13.92
2022-10-30T11:06:47.542Z,13.93
2022-10-30T11:09:23.879Z,13.95
2022-10-30T11:11:53.503Z,13.94
2022-10-30T11:14:22.678Z,13.96
2022-10-30T11:16:59.355Z,14.00
2022-10-30T11:19:27.167Z,14.01
2022-10-30T11:21:56.386Z,13.97
2022-10-30T11:24:34.299Z,14.00
2022-10-30T11:27:31.734Z,14.04
2022-10-30T11:30:05.787Z,14.06
2022-10-30T11:32:35.935Z,14.08
2022-10-30T11:35:09.319Z,14.15
2022-10-30T11:37:40.024Z,14.22
2022-10-30T11:40:19.764Z,14.26
2022-10-30T11:43:03.386Z,14.35
2022-10-30T11:45:35.371Z,14.42
2022-10-30T11:48:05.191Z,14.50
2022-10-30T11:50:34.578Z,14.60
2022-10-30T11:53:11.450Z,14.71
2022-10-30T11:55:42.303Z,14.83
2022-10-30T11:58:11.060Z,14.93
2022-10-30T12:00:41.979Z,15.03
2022-10-30T12:03:29.963Z,15.15
2022-10-30T12:06:12.565Z,15.29
2022-10-30T12:08:40.152Z,15.41
2022-10-30T12:11:08.131Z,15.52
2022-10-30T12:13:40.655Z,15.56
2022-10-30T12:16:19.797Z,15.62
2022-10-30T12:18:59.257Z,15.69
2022-10-30T12:21:29.287Z,15.77
2022-10-30T12:24:04.520Z,15.79
2022-10-30T12:26:32.217Z,15.88
2022-10-30T12:29:03.689Z,15.94
2022-10-30T12:31:40.286Z,16.00
2022-10-30T12:34:19.385Z,16.10
2022-10-30T12:36:54.765Z,16.18
2022-10-30T12:39:43.092Z,16.26
2022-10-30T12:42:16.516Z,16.35
2022-10-30T12:44:54.208Z,16.44
2022-10-30T12:47:44.079Z,16.55
2022-10-30T12:50:28.344Z,16.59
2022-10-30T12:53:02.291Z,16.67
2022-10-30T12:55:40.897Z,16.76
2022-10-30T12:58:32.573Z,16.82
2022-10-30T13:01:14.879Z,16.90
2022-10-30T13:03:54.669Z,16.96
2022-10-30T13:06:28.938Z,16.99
2022-10-30T13:09:20.404Z,17.01
2022-10-30T13:12:02.096Z,17.06
2022-10-30T13:15:04.669Z,17.08
2022-10-30T13:17:32.510Z,17.08
2022-10-30T13:20:01.261Z,17.09
2022-10-30T13:22:35.059Z,17.04
2022-10-30T13:25:25.516Z,17.01
2022-10-30T13:27:59.256Z,16.99
2022-10-30T13:30:35.015Z,17.02
2022-10-30T13:33:14.763Z,16.98
2022-10-30T13:36:05.228Z,16.94
2022-10-30T13:38:48.323Z,16.87
2022-10-30T13:41:42.225Z,16.77
2022-10-30T13:44:43.821Z,16.60
2022-10-30T13:47:23.415Z,16.50
2022-10-30T13:50:08.350Z,16.42
2022-10-30T13:52:39.889Z,16.31
2022-10-30T13:55:49.254Z,16.21
2022-10-30T13:58:39.005Z,16.13
2022-10-30T14:01:16.423Z,16.03
2022-10-30T14:04:11.398Z,15.97
2022-10-30T14:06:57.755Z,15.89
2022-10-30T14:09:31.248Z,15.89
2022-10-30T14:12:03.386Z,15.88
2022-10-30T14:14:32.520Z,15.85
2022-10-30T14:17:11.369Z,15.81
2022-10-30T14:20:13.277Z,15.79
2022-10-30T14:22:42.053Z,15.78
2022-10-30T14:25:17.248Z,15.71
2022-10-30T14:27:56.292Z,15.65
2022-10-30T14:30:24.187Z,15.64
2022-10-30T14:32:53.542Z,15.62
2022-10-30T14:35:39.273Z,15.54
2022-10-30T14:38:23.938Z,15.46
2022-10-30T14:40:54.572Z,15.41
2022-10-30T14:43:37.540Z,15.37
2022-10-30T14:46:18.462Z,15.29
2022-10-30T14:49:14.214Z,15.21
2022-10-30T14:51:51.026Z,15.16
2022-10-30T14:54:23.414Z,15.15
2022-10-30T14:56:55.261Z,15.20
2022-10-30T14:59:31.504Z,15.18
2022-10-30T15:02:03.915Z,15.16
2022-10-30T15:05:07.127Z,15.10
2022-10-30T15:08:20.970Z,15.01
2022-10-30T15:11:06.860Z,14.85
2022-10-30T15:13:34.695Z,14.88
2022-10-30T15:16:06.633Z,14.84
2022-10-30T15:18:34.579Z,14.74
2022-10-30T15:21:06.868Z,14.67
2022-10-30T15:23:37.487Z,14.57
2022-10-30T15:26:19.066Z,14.46
2022-10-30T15:28:51.236Z,14.39
2022-10-30T15:31:18.879Z,14.33
2022-10-30T15:33:46.508Z,14.24
2022-10-30T15:36:42.154Z,14.21
2022-10-30T15:39:13.948Z,14.15
2022-10-30T15:41:51.072Z,14.09
2022-10-30T15:44:27.969Z,14.04
2022-10-30T15:46:57.692Z,14.00
2022-10-30T15:49:35.462Z,13.96
2022-10-30T15:52:06.628Z,13.93
2022-10-30T15:54:35.007Z,13.89
2022-10-30T15:57:36.942Z,13.88
2022-10-30T15:59:54.176Z,13.85
2022-10-30T16:02:24.675Z,13.78
2022-10-30T16:04:52.366Z,13.77
2022-10-30T16:07:25.974Z,13.79
2022-10-30T16:09:59.083Z,13.76
2022-10-30T16:12:28.641Z,13.71
2022-10-30T16:14:57.403Z,13.70
2022-10-30T16:17:26.883Z,13.66
2022-10-30T16:20:00.841Z,13.73
2022-10-30T16:22:33.018Z,13.80
2022-10-30T16:25:01.334Z,13.73
2022-10-30T16:27:29.001Z,13.68
2022-10-30T16:30:01.678Z,13.63
2022-10-30T16:32:32.259Z,13.63
2022-10-30T16:35:02.675Z,13.60
2022-10-30T16:37:37.487Z,13.57
2022-10-30T16:40:15.318Z,13.56
2022-10-30T16:42:48.824Z,13.51
2022-10-30T16:45:19.540Z,13.51
2022-10-30T16:47:52.638Z,13.51
2022-10-30T16:50:21.833Z,13.53
2022-10-30T16:52:50.725Z,13.50
2022-10-30T16:55:23.397Z,13.46
2022-10-30T16:57:59.164Z,13.42
2022-10-30T17:00:32.755Z,13.38
2022-10-30T17:03:09.543Z,13.34
2022-10-30T17:05:38.349Z,13.30
2022-10-30T17:08:18.942Z,13.26
2022-10-30T17:10:58.608Z,13.23
2022-10-30T17:13:35.162Z,13.25
2022-10-30T17:16:16.829Z,13.22
2022-10-30T17:18:46.590Z,13.23
2022-10-30T17:21:17.137Z,13.20
2022-10-30T17:23:50.322Z,13.19
2022-10-30T17:26:19.696Z,13.15
2022-10-30T17:28:48.647Z,13.20
2022-10-30T17:31:19.240Z,13.18
2022-10-30T17:33:48.572Z,13.24
2022-10-30T17:36:16.231Z,13.29
2022-10-30T17:38:44.076Z,13.31
2022-10-30T17:41:15.738Z,13.36
2022-10-30T17:43:53.281Z,13.32
2022-10-30T17:46:21.040Z,13.30
2022-10-30T17:48:48.756Z,13.29
2022-10-30T17:51:18.785Z,13.28
2022-10-30T17:53:49.295Z,13.23
2022-10-30T17:56:32.456Z,13.21
2022-10-30T17:59:00.124Z,13.15
2022-10-30T18:01:28.241Z,13.09
2022-10-30T18:03:56.848Z,13.06
2022-10-30T18:06:27.349Z,13.04
2022-10-30T18:08:55.453Z,13.00
2022-10-30T18:11:25.180Z,12.94
2022-10-30T18:13:53.955Z,12.90
2022-10-30T18:16:21.603Z,12.90
2022-10-30T18:18:49.508Z,12.86
2022-10-30T18:21:19.966Z,12.86
2022-10-30T18:23:55.070Z,12.83
2022-10-30T18:26:27.886Z,12.77
2022-10-30T18:28:55.780Z,12.75
2022-10-30T18:31:25.098Z,12.75
2022-10-30T18:33:53.198Z,12.74
2022-10-30T18:36:23.606Z,12.73
2022-10-30T18:38:53.160Z,12.82
2022-10-30T18:41:25.042Z,12.88
2022-10-30T18:43:52.721Z,12.96
2022-10-30T18:46:20.381Z,13.03
2022-10-30T18:48:48.123Z,13.08
2022-10-30T18:51:26.963Z,13.14
2022-10-30T18:53:55.981Z,13.18
2022-10-30T18:56:31.636Z,13.18
2022-10-30T18:59:01.980Z,13.21
2022-10-30T19:01:33.214Z,13.21
2022-10-30T19:04:05.153Z,13.17
2022-10-30T19:06:35.171Z,13.15
2022-10-30T19:09:03.089Z,13.12
2022-10-30T19:11:31.881Z,13.12
2022-10-30T19:14:00.637Z,13.16
2022-10-30T19:16:28.594Z,13.16
2022-10-30T19:18:56.239Z,13.09
2022-10-30T19:21:26.567Z,13.08
2022-10-30T19:23:56.129Z,13.08
2022-10-30T19:26:23.758Z,13.09
2022-10-30T19:28:51.356Z,13.14
2022-10-30T19:31:20.581Z,13.14
2022-10-30T19:33:52.895Z,13.17
2022-10-30T19:36:29.833Z,13.11
2022-10-30T19:38:57.628Z,13.04
2022-10-30T19:41:25.727Z,12.96
2022-10-30T19:43:54.319Z,12.92
2022-10-30T19:46:22.627Z,12.91
2022-10-30T19:48:59.049Z,12.89
2022-10-30T19:51:30.308Z,12.87
2022-10-30T19:53:58.006Z,12.80
2022-10-30T19:56:25.819Z,12.77
2022-10-30T19:58:53.418Z,12.73
2022-10-30T20:01:21.287Z,12.65
2022-10-30T20:03:49.076Z,12.62
2022-10-30T20:06:17.190Z,12.56
2022-10-30T20:08:44.856Z,12.56
2022-10-30T20:11:12.541Z,12.51
2022-10-30T20:13:40.211Z,12.44
2022-10-30T20:16:08.380Z,12.40
2022-10-30T20:18:37.168Z,12.29
2022-10-30T20:21:11.196Z,12.25
2022-10-30T20:23:39.727Z,12.24
2022-10-30T20:26:16.752Z,12.21
2022-10-30T20:28:46.035Z,12.17
2022-10-30T20:31:14.184Z,12.14
2022-10-30T20:33:41.856Z,12.13
2022-10-30T20:36:13.731Z,12.12
2022-10-30T20:38:41.664Z,12.07
2022-10-30T20:41:21.888Z,12.01
2022-10-30T20:43:51.201Z,11.96
2022-10-30T20:46:19.475Z,11.93
2022-10-30T20:48:47.364Z,11.87
2022-10-30T20:51:15.644Z,11.83
2022-10-30T20:53:43.362Z,11.79
2022-10-30T20:56:12.752Z,11.76
2022-10-30T20:58:41.027Z,11.72
2022-10-30T21:01:08.754Z,11.71
2022-10-30T21:03:36.480Z,11.70
2022-10-30T21:06:04.290Z,11.67
2022-10-30T21:08:35.158Z,11.67
2022-10-30T21:11:05.122Z,11.70
2022-10-30T21:13:35.120Z,11.70
2022-10-30T21:16:05.551Z,11.70
2022-10-30T21:18:33.525Z,11.69
2022-10-30T21:21:03.148Z,11.73
2022-10-30T21:23:31.332Z,11.70
2022-10-30T21:26:07.075Z,11.67
2022-10-30T21:28:34.841Z,11.66
2022-10-30T21:31:08.009Z,11.63
2022-10-30T21:33:37.249Z,11.64
2022-10-30T21:36:12.945Z,11.61
2022-10-30T21:38:45.656Z,11.52
2022-10-30T21:41:15.664Z,11.54
2022-10-30T21:43:44.008Z,11.52
2022-10-30T21:46:13.482Z,11.53
2022-10-30T21:48:41.234Z,11.52
2022-10-30T21:51:15.138Z,11.50
2022-10-30T21:53:43.422Z,11.50
2022-10-30T21:56:18.057Z,11.52
2022-10-30T21:58:46.181Z,11.52
2022-10-30T22:01:17.238Z,11.49
2022-10-30T22:03:45.313Z,11.44
2022-10-30T22:06:15.816Z,11.42
2022-10-30T22:08:47.566Z,11.43
2022-10-30T22:11:16.186Z,11.40
2022-10-30T22:13:44.111Z,11.37
2022-10-30T22:16:13.822Z,11.37
2022-10-30T22:18:42.088Z,11.34
2022-10-30T22:21:12.513Z,11.31
2022-10-30T22:23:41.257Z,11.34
2022-10-30T22:26:15.577Z,11.38
2022-10-30T22:28:44.179Z,11.37
2022-10-30T22:31:19.808Z,11.34
2022-10-30T22:33:47.830Z,11.30
2022-10-30T22:36:25.347Z,11.28
2022-10-30T22:39:16.037Z,11.20
2022-10-30T22:41:43.867Z,11.12
2022-10-30T22:44:18.485Z,11.07
2022-10-30T22:46:46.562Z,10.99
2022-10-30T22:49:14.184Z,10.97
2022-10-30T22:51:41.871Z,11.00
2022-10-30T22:54:15.210Z,11.00
2022-10-30T22:56:43.264Z,10.99
2022-10-30T22:59:13.500Z,10.97
2022-10-30T23:01:42.696Z,10.98
2022-10-30T23:04:12.179Z,10.99
2022-10-30T23:06:39.914Z,10.99
2022-10-30T23:09:15.557Z,11.01
2022-10-30T23:11:43.623Z,11.01
2022-10-30T23:14:11.235Z,11.02
2022-10-30T23:16:38.963Z,11.03
2022-10-30T23:19:06.613Z,11.05
2022-10-30T23:21:34.280Z,11.06
2022-10-30T23:24:05.265Z,11.07
2022-10-30T23:26:36.071Z,11.11
2022-10-30T23:29:04.882Z,11.12
2022-10-30T23:31:41.900Z,11.14
2022-10-30T23:34:15.155Z,11.17
2022-10-30T23:36:44.284Z,11.22
2022-10-30T23:39:15.812Z,11.25
2022-10-30T23:41:43.969Z,11.25
2022-10-30T23:44:14.513Z,11.27
2022-10-30T23:46:42.639Z,11.28
2022-10-30T23:49:10.248Z,11.27
2022-10-30T23:51:38.663Z,11.28
2022-10-30T23:54:06.304Z,11.29
2022-10-30T23:56:33.945Z,11.26
2022-10-30T23:59:01.947Z,11.25
